Time;durP1;ratioP1;P1;durP2;ratioP2;P2;SDS_P1;SDS_P2;PMS_P1;PMS_P2;Temp;Humidity;BMP_temperature;BMP_pressure;BME280_temperature;BME280_humidity;BME280_pressure;Samples;Min_cycle;Max_cycle;Signal;HPM_P1;HPM_P2
2023/01/13 00:01:06;;;;;;;1182.07;154.17;;;9.20;99.90;;;;;;5029250;28;20214;-52
2023/01/13 00:03:35;;;;;;;1102.60;201.10;;;9.20;99.90;;;;;;5023195;28;20202;-51
2023/01/13 00:06:04;;;;;;;1999.90;337.47;;;9.10;99.90;;;;;;5029504;28;20228;-51
2023/01/13 00:08:34;;;;;;;1179.27;147.83;;;9.10;99.90;;;;;;5028590;28;20287;-52
2023/01/13 00:11:02;;;;;;;770.77;93.23;;;9.10;99.90;;;;;;5029538;28;20202;-52
2023/01/13 00:13:34;;;;;;;1541.73;221.70;;;9.10;99.90;;;;;;5028824;28;20581;-52
2023/01/13 00:16:05;;;;;;;1127.93;182.50;;;9.10;99.90;;;;;;5024378;28;20206;-52
2023/01/13 00:18:35;;;;;;;740.00;135.07;;;9.10;99.90;;;;;;5029221;28;20668;-51
2023/01/13 00:21:05;;;;;;;1421.07;239.83;;;9.10;99.90;;;;;;5029333;28;20695;-52
2023/01/13 00:23:36;;;;;;;1503.13;185.50;;;9.10;99.90;;;;;;5022702;28;20250;-52
2023/01/13 00:26:07;;;;;;;544.87;106.57;;;9.10;99.90;;;;;;5029191;28;20243;-52
2023/01/13 00:28:36;;;;;;;1999.90;411.20;;;9.10;99.90;;;;;;5028994;28;20697;-52
2023/01/13 00:31:09;;;;;;;1999.90;574.30;;;9.10;99.90;;;;;;5028758;28;20238;-51
2023/01/13 00:33:37;;;;;;;1072.47;174.20;;;9.10;99.90;;;;;;5028700;28;20237;-51
2023/01/13 00:36:07;;;;;;;1390.77;218.17;;;9.10;99.90;;;;;;5029143;28;20201;-52
2023/01/13 00:38:37;;;;;;;1999.90;487.30;;;9.10;99.90;;;;;;5028954;28;20233;-52
2023/01/13 00:41:07;;;;;;;1668.27;276.33;;;9.10;99.90;;;;;;5028977;28;20631;-51
2023/01/13 00:43:35;;;;;;;1999.90;380.97;;;9.10;99.90;;;;;;5028853;28;20203;-51
2023/01/13 00:46:04;;;;;;;1502.77;258.60;;;9.10;99.90;;;;;;5028085;28;20214;-52
2023/01/13 00:48:33;;;;;;;1999.90;287.17;;;9.10;99.90;;;;;;5028806;28;20324;-52
2023/01/13 00:51:04;;;;;;;1992.27;272.50;;;9.10;99.90;;;;;;5028754;28;20209;-52
2023/01/13 00:53:37;;;;;;;1154.57;201.17;;;9.10;99.90;;;;;;5024994;28;20273;-52
2023/01/13 00:56:08;;;;;;;1632.20;256.63;;;9.10;99.90;;;;;;5028697;28;20218;-52
2023/01/13 00:58:37;;;;;;;1999.90;478.77;;;9.20;99.90;;;;;;5018747;28;20967;-52
2023/01/13 01:01:07;;;;;;;1999.90;429.73;;;9.20;99.90;;;;;;5023291;28;20211;-52
2023/01/13 01:03:36;;;;;;;1291.43;176.17;;;9.10;99.90;;;;;;5028111;28;20210;-52
2023/01/13 01:06:07;;;;;;;1773.27;209.43;;;9.10;99.90;;;;;;5015979;28;20315;-52
2023/01/13 01:08:36;;;;;;;1993.00;282.47;;;9.20;99.90;;;;;;5028206;28;20240;-50
2023/01/13 01:11:07;;;;;;;473.23;86.63;;;9.20;99.90;;;;;;5028555;28;20210;-52
2023/01/13 01:13:36;;;;;;;1487.60;183.27;;;9.20;99.90;;;;;;5028082;28;20220;-52
2023/01/13 01:16:06;;;;;;;1999.90;301.63;;;9.20;99.90;;;;;;5028643;28;20229;-52
2023/01/13 01:18:35;;;;;;;938.33;144.37;;;9.20;99.90;;;;;;5016677;28;20227;-51
2023/01/13 01:21:04;;;;;;;1999.90;371.97;;;9.20;99.90;;;;;;5028555;28;20703;-51
2023/01/13 01:23:33;;;;;;;1973.60;339.57;;;9.20;99.90;;;;;;5022903;28;20297;-52
2023/01/13 01:26:05;;;;;;;1097.63;131.23;;;9.20;99.90;;;;;;5023293;28;20592;-52
2023/01/13 01:28:34;;;;;;;675.90;93.57;;;9.20;99.90;;;;;;5022193;28;20262;-52
2023/01/13 01:31:06;;;;;;;191.53;36.20;;;9.20;99.90;;;;;;5028475;28;20285;-51
2023/01/13 01:33:34;;;;;;;488.13;87.70;;;9.30;99.90;;;;;;5028150;28;20213;-51
2023/01/13 01:36:03;;;;;;;1220.07;171.60;;;9.30;99.90;;;;;;5028265;28;20237;-52
2023/01/13 01:38:31;;;;;;;772.60;114.57;;;9.30;99.90;;;;;;5028015;28;20225;-52
2023/01/13 01:41:00;;;;;;;733.83;219.10;;;9.30;99.90;;;;;;5028288;28;20327;-52
2023/01/13 01:43:58;;;;;;;1933.00;235.73;;;9.30;99.90;;;;;;5031247;28;20206;-51
2023/01/13 01:46:29;;;;;;;1999.90;478.60;;;9.30;99.90;;;;;;5031643;28;20232;-52
2023/01/13 01:49:03;;;;;;;1406.67;175.10;;;9.30;99.90;;;;;;5031877;28;20227;-52
2023/01/13 01:51:36;;;;;;;1999.90;428.57;;;9.30;99.90;;;;;;5031688;28;20206;-51
2023/01/13 01:54:08;;;;;;;1320.40;163.37;;;9.20;99.90;;;;;;5031472;28;20210;-51
2023/01/13 01:56:38;;;;;;;1721.20;216.20;;;9.30;99.90;;;;;;5021563;28;20206;-52
2023/01/13 01:59:08;;;;;;;363.73;71.97;;;9.30;99.90;;;;;;5031401;28;20230;-51
2023/01/13 02:01:38;;;;;;;1944.70;228.17;;;9.30;99.90;;;;;;5031631;28;20206;-51
2023/01/13 02:04:12;;;;;;;1029.43;119.80;;;9.30;99.90;;;;;;5022031;28;20661;-51
2023/01/13 02:06:41;;;;;;;1269.83;174.97;;;9.30;99.90;;;;;;5030637;28;20225;-51
2023/01/13 02:09:10;;;;;;;615.30;120.87;;;9.30;99.90;;;;;;5031044;28;20722;-51
2023/01/13 02:14:28;;;;;;;1999.90;337.67;;;9.30;99.90;;;;;;5031405;28;20202;-52
2023/01/13 02:17:10;;;;;;;1999.90;257.17;;;9.30;99.90;;;;;;5030925;28;20668;-51
2023/01/13 02:20:26;;;;;;;1999.90;455.33;;;9.30;99.90;;;;;;5031427;28;20263;-52
2023/01/13 02:26:16;;;;;;;1149.50;216.83;;;9.20;99.90;;;;;;5030498;28;20311;-51
2023/01/13 02:31:53;;;;;;;1536.63;259.17;;;9.30;99.90;;;;;;5030698;28;20577;-51
2023/01/13 02:34:29;;;;;;;986.00;163.57;;;9.30;99.90;;;;;;5031006;28;20214;-51
2023/01/13 02:37:03;;;;;;;1290.07;185.03;;;9.40;99.90;;;;;;5025884;28;20216;-52
2023/01/13 02:39:37;;;;;;;1219.43;162.47;;;9.40;99.90;;;;;;5016795;28;20232;-52
2023/01/13 02:44:59;;;;;;;1999.90;461.33;;;9.30;99.90;;;;;;5019419;28;20582;-52
2023/01/13 02:47:32;;;;;;;1999.90;416.90;;;9.30;99.90;;;;;;5043391;28;20328;-51
2023/01/13 02:50:03;;;;;;;1999.90;469.53;;;9.30;99.90;;;;;;5030305;28;20216;-52
2023/01/13 02:52:36;;;;;;;1999.90;397.73;;;9.30;99.90;;;;;;5029639;28;20221;-51
2023/01/13 02:55:10;;;;;;;1999.90;342.33;;;9.30;99.90;;;;;;5030621;28;20214;-51
2023/01/13 02:57:41;;;;;;;1923.77;280.70;;;9.30;99.90;;;;;;5030337;28;20228;-51
2023/01/13 03:00:12;;;;;;;1999.90;374.80;;;9.30;99.90;;;;;;5029971;28;20198;-52
2023/01/13 03:02:41;;;;;;;1999.90;315.80;;;9.30;99.90;;;;;;5045994;28;20222;-51
2023/01/13 03:05:14;;;;;;;816.57;94.77;;;9.30;99.90;;;;;;5050297;28;21019;-52
2023/01/13 03:07:58;;;;;;;1708.37;276.53;;;9.30;99.90;;;;;;5036247;28;20323;-52
2023/01/13 03:10:47;;;;;;;1547.83;237.93;;;9.30;99.90;;;;;;5042471;28;20250;-51
2023/01/13 03:13:25;;;;;;;486.90;69.50;;;9.30;99.90;;;;;;5049730;28;20245;-52
2023/01/13 03:16:05;;;;;;;1999.90;441.63;;;9.30;99.90;;;;;;5037871;28;20233;-52
2023/01/13 03:18:42;;;;;;;1999.90;871.60;;;9.30;99.90;;;;;;5045061;28;20260;-52
2023/01/13 03:21:19;;;;;;;1999.90;441.57;;;9.10;99.90;;;;;;5022690;28;20202;-52
2023/01/13 03:23:51;;;;;;;1999.90;483.73;;;9.00;99.90;;;;;;5049362;28;20236;-51
2023/01/13 03:26:28;;;;;;;1999.90;652.43;;;8.90;99.90;;;;;;5049988;28;20232;-51
2023/01/13 03:29:03;;;;;;;1146.03;205.63;;;8.80;99.90;;;;;;5043790;28;20864;-51
2023/01/13 03:31:34;;;;;;;1981.20;356.37;;;8.80;99.90;;;;;;5044682;28;20741;-51
2023/01/13 03:34:09;;;;;;;858.03;156.33;;;8.80;99.90;;;;;;5047009;28;20676;-52
2023/01/13 03:36:39;;;;;;;1999.90;381.40;;;8.80;99.90;;;;;;5022247;28;20262;-52
2023/01/13 03:39:12;;;;;;;1999.90;623.67;;;8.70;99.90;;;;;;5049518;28;20272;-51
2023/01/13 03:41:45;;;;;;;1903.67;365.77;;;8.70;99.90;;;;;;5049913;28;20641;-52
2023/01/13 03:44:22;;;;;;;1999.90;381.67;;;8.70;99.90;;;;;;5030942;28;20670;-52
2023/01/13 03:47:00;;;;;;;1999.90;364.70;;;8.70;99.90;;;;;;5024072;28;20236;-53
2023/01/13 03:49:34;;;;;;;1999.90;428.57;;;8.70;99.90;;;;;;5049484;28;20367;-52
2023/01/13 03:52:07;;;;;;;1999.90;628.63;;;8.60;99.90;;;;;;5039513;28;20818;-52
2023/01/13 03:54:42;;;;;;;1228.23;205.83;;;8.50;99.90;;;;;;5038985;28;20253;-52
2023/01/13 03:57:14;;;;;;;510.53;104.27;;;8.50;99.90;;;;;;5049705;28;20232;-52
2023/01/13 03:59:48;;;;;;;1999.90;363.57;;;8.50;99.90;;;;;;5049145;28;20273;-51
2023/01/13 04:02:23;;;;;;;1840.37;299.23;;;8.50;99.90;;;;;;5049089;28;20245;-51
2023/01/13 04:04:58;;;;;;;1946.90;274.67;;;8.50;99.90;;;;;;5036776;28;20261;-51
2023/01/13 04:07:37;;;;;;;1854.90;323.80;;;8.40;99.90;;;;;;5049055;28;20225;-52
2023/01/13 04:10:09;;;;;;;1999.90;737.53;;;8.30;99.90;;;;;;5034272;28;20230;-52
2023/01/13 04:15:29;;;;;;;1276.23;175.33;;;8.40;99.90;;;;;;5048978;28;20626;-50
2023/01/13 04:18:08;;;;;;;1999.90;508.97;;;8.30;99.90;;;;;;5049054;28;20340;-51
2023/01/13 04:20:38;;;;;;;1999.90;722.67;;;8.30;99.90;;;;;;5049087;28;20259;-51
2023/01/13 04:23:07;;;;;;;1706.37;294.57;;;8.40;99.90;;;;;;5048941;28;20236;-51
2023/01/13 04:25:35;;;;;;;1999.90;309.50;;;8.30;99.90;;;;;;5048816;28;20908;-51
2023/01/13 04:28:03;;;;;;;1519.53;268.83;;;8.30;99.90;;;;;;5049031;28;20231;-51
2023/01/13 04:30:31;;;;;;;358.57;107.03;;;8.30;99.90;;;;;;5027579;28;20234;-52
2023/01/13 04:32:59;;;;;;;371.43;112.63;;;8.30;99.90;;;;;;5048541;28;20240;-52
2023/01/13 04:35:27;;;;;;;378.57;109.80;;;8.20;99.90;;;;;;5039818;28;20714;-51
2023/01/13 04:37:59;;;;;;;128.40;37.23;;;8.20;99.90;;;;;;5048953;28;20256;-51
2023/01/13 04:40:27;;;;;;;189.90;55.90;;;8.20;99.90;;;;;;5049094;28;20214;-51
2023/01/13 04:42:56;;;;;;;28.97;16.43;;;8.20;99.90;;;;;;5036869;28;20714;-52
2023/01/13 04:45:24;;;;;;;116.90;23.07;;;8.20;99.90;;;;;;5049053;28;20237;-51
2023/01/13 04:47:52;;;;;;;366.10;85.43;;;8.20;99.90;;;;;;5048240;28;20320;-51
2023/01/13 04:50:21;;;;;;;225.27;53.10;;;8.20;99.90;;;;;;5048860;28;20240;-50
2023/01/13 04:52:50;;;;;;;66.50;30.27;;;8.20;99.90;;;;;;5048771;28;20198;-51
2023/01/13 04:55:21;;;;;;;323.83;80.93;;;8.20;99.90;;;;;;5048408;28;20279;-52
2023/01/13 04:57:49;;;;;;;219.40;58.63;;;8.10;99.90;;;;;;5048598;28;20321;-51
2023/01/13 05:00:19;;;;;;;134.27;44.73;;;8.10;99.90;;;;;;5032423;28;20656;-52
2023/01/13 05:02:49;;;;;;;845.63;139.03;;;8.10;99.90;;;;;;5046695;28;20210;-51
2023/01/13 05:05:17;;;;;;;556.63;94.10;;;8.00;99.90;;;;;;5049056;28;20299;-52
2023/01/13 05:07:46;;;;;;;609.90;192.47;;;7.90;99.90;;;;;;5048329;28;20226;-51
2023/01/13 05:10:14;;;;;;;58.53;27.30;;;7.90;99.90;;;;;;5048227;28;20301;-51
2023/01/13 05:18:15;;;;;;;690.33;117.43;;;7.80;99.90;;;;;;5052367;28;20219;-51
2023/01/13 05:20:43;;;;;;;1366.20;200.73;;;7.80;99.90;;;;;;5035514;28;20300;-51
2023/01/13 05:25:57;;;;;;;141.50;52.67;;;7.70;99.90;;;;;;5024745;28;20264;-51
2023/01/13 05:28:30;;;;;;;497.07;134.60;;;7.70;99.90;;;;;;5052241;28;20238;-51
2023/01/13 05:30:58;;;;;;;745.97;169.57;;;7.70;99.90;;;;;;5052474;28;20320;-52
2023/01/13 05:33:26;;;;;;;1769.97;301.23;;;7.60;99.90;;;;;;5045974;28;20205;-51
2023/01/13 05:35:54;;;;;;;1404.23;213.80;;;7.50;99.90;;;;;;5050405;28;20694;-52
2023/01/13 05:38:22;;;;;;;1269.90;239.40;;;7.50;99.90;;;;;;5032559;28;20264;-52
2023/01/13 05:43:37;;;;;;;1282.80;190.10;;;7.50;99.90;;;;;;5051664;28;20756;-52
2023/01/13 05:46:08;;;;;;;648.13;112.43;;;7.50;99.90;;;;;;5051800;28;20198;-51
2023/01/13 05:48:38;;;;;;;162.50;44.97;;;7.50;99.90;;;;;;5051674;28;20633;-52
2023/01/13 05:51:08;;;;;;;215.93;51.47;;;7.50;99.90;;;;;;5051927;28;20213;-52
2023/01/13 05:53:36;;;;;;;1415.90;319.90;;;7.30;99.90;;;;;;5047493;28;20305;-51
2023/01/13 05:56:05;;;;;;;992.07;249.20;;;7.30;99.90;;;;;;5051718;28;20237;-52
2023/01/13 05:58:33;;;;;;;327.73;62.33;;;7.20;99.90;;;;;;5046714;28;20259;-51
2023/01/13 06:01:06;;;;;;;273.93;67.33;;;7.20;99.90;;;;;;5051828;28;20260;-52
2023/01/13 06:03:34;;;;;;;49.83;28.23;;;7.30;99.90;;;;;;5051014;28;20220;-52
2023/01/13 06:06:03;;;;;;;286.47;62.23;;;7.30;99.90;;;;;;5043158;28;20249;-51
2023/01/13 06:08:31;;;;;;;171.70;54.67;;;7.20;99.90;;;;;;5046635;28;20232;-50
2023/01/13 06:10:59;;;;;;;391.30;60.27;;;7.30;99.90;;;;;;5051509;28;20262;-50
2023/01/13 06:13:28;;;;;;;173.33;43.63;;;7.20;99.90;;;;;;5050952;28;20232;-52
2023/01/13 06:15:57;;;;;;;290.83;88.13;;;7.20;99.90;;;;;;5051398;28;20288;-52
2023/01/13 06:18:27;;;;;;;235.20;59.73;;;7.20;99.90;;;;;;5051411;28;20225;-51
2023/01/13 06:20:56;;;;;;;677.37;87.27;;;7.20;99.90;;;;;;5051857;28;20609;-52
2023/01/13 06:23:24;;;;;;;286.47;67.90;;;7.20;99.90;;;;;;5047105;28;20213;-51
2023/01/13 06:25:59;;;;;;;510.17;103.23;;;7.20;99.90;;;;;;5050979;28;20236;-51
2023/01/13 06:28:27;;;;;;;1266.70;239.27;;;7.10;99.90;;;;;;5050297;28;20229;-51
2023/01/13 06:30:58;;;;;;;262.83;59.03;;;7.00;99.90;;;;;;5050764;28;20256;-51
2023/01/13 06:33:31;;;;;;;743.93;186.37;;;6.90;99.90;;;;;;5050563;28;20241;-51
2023/01/13 06:36:03;;;;;;;339.23;82.33;;;6.80;99.90;;;;;;5050415;28;20780;-51
2023/01/13 06:38:36;;;;;;;1960.73;395.33;;;6.70;99.90;;;;;;5050380;28;20360;-51
2023/01/13 06:41:04;;;;;;;349.97;83.30;;;6.60;99.90;;;;;;5050828;28;20250;-52
2023/01/13 06:43:31;;;;;;;1129.07;213.43;;;6.60;99.90;;;;;;5035307;28;20624;-52
2023/01/13 06:46:01;;;;;;;108.13;34.77;;;6.50;99.90;;;;;;5041733;28;20213;-53
2023/01/13 06:48:34;;;;;;;573.37;116.77;;;6.40;99.90;;;;;;5050752;28;20229;-51
2023/01/13 06:51:03;;;;;;;1999.90;326.10;;;6.40;99.90;;;;;;5049829;28;20228;-51
2023/01/13 06:53:31;;;;;;;1297.93;269.40;;;6.30;99.90;;;;;;5037393;28;20650;-51
2023/01/13 06:55:59;;;;;;;193.60;41.27;;;6.30;99.90;;;;;;5050799;28;20574;-50
2023/01/13 06:58:27;;;;;;;601.37;98.53;;;6.30;99.90;;;;;;5050490;28;20350;-52
2023/01/13 07:01:00;;;;;;;955.73;155.50;;;6.30;99.90;;;;;;5038318;28;20293;-52
2023/01/13 07:03:28;;;;;;;433.77;79.83;;;6.40;99.90;;;;;;5049089;28;20205;-51
2023/01/13 07:05:57;;;;;;;1959.03;257.47;;;6.40;99.90;;;;;;5040807;28;20217;-51
2023/01/13 07:08:25;;;;;;;69.23;23.17;;;6.50;99.90;;;;;;5049745;28;20817;-52
2023/01/13 07:10:54;;;;;;;1999.90;306.77;;;6.60;99.90;;;;;;5050465;28;20206;-51
2023/01/13 07:16:09;;;;;;;1560.80;207.53;;;6.60;99.90;;;;;;5050160;28;20243;-51
2023/01/13 07:18:37;;;;;;;1999.90;416.80;;;6.60;99.90;;;;;;5049774;28;20600;-51
2023/01/13 07:21:08;;;;;;;1999.90;506.60;;;6.60;99.90;;;;;;5034831;28;20704;-51
2023/01/13 07:23:38;;;;;;;1437.87;252.80;;;6.60;99.90;;;;;;5041779;28;20201;-52
2023/01/13 07:26:25;;;;;;;1936.83;393.43;;;6.50;99.90;;;;;;5049790;28;20208;-51
2023/01/13 07:28:53;;;;;;;724.30;140.60;;;6.50;99.90;;;;;;5049912;28;20257;-52
2023/01/13 07:31:22;;;;;;;1999.90;436.67;;;6.40;99.90;;;;;;5049598;28;20747;-52
2023/01/13 07:33:50;;;;;;;416.80;107.30;;;6.40;99.90;;;;;;5049358;28;20216;-51
2023/01/13 07:36:19;;;;;;;1105.90;207.33;;;6.40;99.90;;;;;;5049716;28;20288;-52
2023/01/13 07:38:47;;;;;;;1999.90;611.00;;;6.50;99.90;;;;;;5048041;28;20249;-51
2023/01/13 07:44:03;;;;;;;658.00;117.93;;;6.50;99.90;;;;;;5045132;28;20299;-52
2023/01/13 07:46:32;;;;;;;1999.90;351.57;;;6.50;99.90;;;;;;5048775;28;20201;-53
2023/01/13 07:49:00;;;;;;;314.50;88.03;;;6.40;99.90;;;;;;5049362;28;20691;-52
2023/01/13 07:51:29;;;;;;;1503.40;281.87;;;6.50;99.90;;;;;;5049465;28;20229;-52
2023/01/13 07:53:57;;;;;;;1341.53;299.67;;;6.50;99.90;;;;;;5043164;28;20300;-51
2023/01/13 07:56:25;;;;;;;1727.63;275.13;;;6.50;99.90;;;;;;5021921;28;20246;-51
2023/01/13 07:58:54;;;;;;;1170.37;163.07;;;6.50;99.90;;;;;;5028909;28;20234;-52
2023/01/13 08:01:22;;;;;;;1707.70;262.30;;;6.60;99.90;;;;;;5046804;28;20748;-50
2023/01/13 08:03:50;;;;;;;1176.63;220.13;;;6.60;99.90;;;;;;5030354;28;20288;-51
2023/01/13 08:06:18;;;;;;;1023.97;151.93;;;6.60;99.90;;;;;;5033428;28;20202;-51
2023/01/13 08:08:47;;;;;;;1999.90;517.53;;;6.70;99.90;;;;;;5048445;28;20275;-51
2023/01/13 08:11:15;;;;;;;1676.87;250.13;;;6.60;99.90;;;;;;5048657;28;20256;-51
2023/01/13 08:13:43;;;;;;;501.57;95.90;;;6.70;99.90;;;;;;5048134;28;20232;-51
2023/01/13 08:16:14;;;;;;;1876.13;259.33;;;6.80;99.90;;;;;;5049178;28;20295;-51
2023/01/13 08:18:42;;;;;;;59.37;21.17;;;6.80;99.90;;;;;;5048633;28;20289;-51
2023/01/13 08:21:11;;;;;;;471.70;96.07;;;6.90;99.90;;;;;;5048810;28;20338;-51
2023/01/13 08:23:40;;;;;;;770.97;108.27;;;7.00;99.90;;;;;;5039291;28;20218;-52
2023/01/13 08:26:12;;;;;;;582.77;101.23;;;7.10;99.90;;;;;;5044116;28;20263;-52
2023/01/13 08:28:40;;;;;;;441.43;79.70;;;7.10;99.90;;;;;;5044788;28;20237;-51
2023/01/13 08:31:11;;;;;;;72.27;22.90;;;7.20;99.90;;;;;;5049030;28;20302;-53
2023/01/13 08:33:40;;;;;;;61.70;23.67;;;7.30;99.90;;;;;;5038472;28;20217;-51
2023/01/13 08:36:11;;;;;;;406.77;97.60;;;7.40;99.90;;;;;;5048830;28;20233;-52
2023/01/13 08:38:40;;;;;;;514.43;100.73;;;7.30;99.90;;;;;;5049050;28;20316;-51
2023/01/13 08:41:11;;;;;;;30.83;14.33;;;7.30;99.90;;;;;;5049120;28;20200;-51
2023/01/13 08:43:39;;;;;;;172.93;42.60;;;7.30;99.90;;;;;;5048799;28;20259;-52
2023/01/13 08:46:07;;;;;;;190.27;51.50;;;7.20;99.90;;;;;;5048642;28;20606;-52
2023/01/13 08:48:35;;;;;;;252.90;49.50;;;7.20;99.90;;;;;;5042590;28;20244;-52
2023/01/13 08:51:06;;;;;;;1649.60;410.70;;;7.20;99.90;;;;;;5048150;28;20225;-52
2023/01/13 08:53:34;;;;;;;381.47;77.23;;;7.20;99.90;;;;;;5047847;28;20258;-52
2023/01/13 08:56:02;;;;;;;1473.80;224.37;;;7.30;99.90;;;;;;5033873;28;20205;-51
2023/01/13 08:58:31;;;;;;;865.20;231.07;;;7.30;99.90;;;;;;5035509;28;20256;-52
2023/01/13 09:01:05;;;;;;;543.83;142.43;;;7.30;99.90;;;;;;5044462;28;20726;-51
2023/01/13 09:03:33;;;;;;;610.20;125.60;;;7.30;99.90;;;;;;5051659;28;20686;-51
2023/01/13 09:06:01;;;;;;;1514.93;236.53;;;7.40;99.90;;;;;;5052621;28;20232;-51
2023/01/13 09:08:29;;;;;;;155.87;53.13;;;7.40;99.90;;;;;;5052384;28;20257;-50
2023/01/13 09:10:57;;;;;;;505.13;105.80;;;7.40;99.90;;;;;;5035708;28;20260;-51
2023/01/13 09:13:24;;;;;;;215.60;83.33;;;7.40;99.90;;;;;;5033120;28;20298;-51
2023/01/13 09:15:55;;;;;;;263.83;87.40;;;7.40;99.90;;;;;;5036794;28;20260;-51
2023/01/13 09:18:23;;;;;;;486.20;111.53;;;7.50;99.90;;;;;;5032405;28;20226;-51
2023/01/13 09:20:51;;;;;;;989.93;139.83;;;7.50;99.90;;;;;;5032148;28;20210;-52
2023/01/13 09:23:19;;;;;;;804.20;154.97;;;7.50;99.90;;;;;;5031272;28;20233;-52
2023/01/13 09:25:48;;;;;;;329.27;109.87;;;7.50;99.90;;;;;;5031360;28;20252;-52
2023/01/13 09:28:16;;;;;;;1594.87;313.33;;;7.60;99.90;;;;;;5031694;28;20242;-51
2023/01/13 09:30:44;;;;;;;109.73;49.47;;;7.60;99.90;;;;;;5032075;28;20275;-51
2023/01/13 09:35:59;;;;;;;204.87;62.67;;;7.80;99.90;;;;;;5032146;28;20237;-51
2023/01/13 09:38:28;;;;;;;93.97;34.17;;;7.90;99.90;;;;;;5031591;28;20237;-52
2023/01/13 09:40:56;;;;;;;1538.13;204.23;;;7.80;99.90;;;;;;5031798;28;20205;-51
2023/01/13 09:49:14;;;;;;;1005.93;183.37;;;7.70;99.90;;;;;;5030766;28;20675;-50
2023/01/13 09:51:45;;;;;;;1690.67;219.17;;;7.70;99.90;;;;;;5031102;28;20226;-54
2023/01/13 09:54:22;;;;;;;634.50;134.47;;;7.90;99.90;;;;;;5031352;28;20209;-51
2023/01/13 09:56:51;;;;;;;1018.20;178.10;;;8.10;99.90;;;;;;5031785;28;20698;-52
2023/01/13 09:59:20;;;;;;;1787.77;380.30;;;8.20;99.90;;;;;;5027117;28;20254;-52
2023/01/13 10:01:58;;;;;;;572.17;103.47;;;8.10;99.90;;;;;;5026045;28;20205;-52
2023/01/13 10:04:28;;;;;;;357.43;81.43;;;8.10;99.90;;;;;;5050489;28;20237;-51
2023/01/13 10:07:01;;;;;;;857.00;151.40;;;8.00;99.90;;;;;;5051367;28;20205;-50
2023/01/13 10:09:35;;;;;;;1958.20;285.60;;;8.00;99.90;;;;;;5036819;28;20252;-52
2023/01/13 10:14:56;;;;;;;811.17;227.47;;;8.00;99.90;;;;;;5012199;28;20250;-52
2023/01/13 10:17:32;;;;;;;915.00;185.40;;;8.10;99.90;;;;;;5051347;28;20284;-52
2023/01/13 10:20:12;;;;;;;217.03;82.57;;;8.30;99.90;;;;;;5048615;28;20236;-51
2023/01/13 10:22:52;;;;;;;991.43;177.83;;;8.30;99.90;;;;;;5050958;28;20662;-52
2023/01/13 10:25:44;;;;;;;1972.70;335.10;;;8.30;99.90;;;;;;5050878;28;20267;-51
2023/01/13 10:28:14;;;;;;;1157.10;226.03;;;8.30;99.90;;;;;;5048754;28;20275;-51
2023/01/13 10:30:46;;;;;;;1999.90;934.93;;;8.30;99.90;;;;;;5048467;28;20226;-52
2023/01/13 10:33:17;;;;;;;1861.30;354.13;;;8.40;99.90;;;;;;5033267;28;20211;-51
2023/01/13 10:35:50;;;;;;;957.63;164.67;;;8.30;99.90;;;;;;5036370;28;20300;-51
2023/01/13 10:38:20;;;;;;;1999.90;384.67;;;8.30;99.90;;;;;;5041292;28;20253;-51
2023/01/13 10:40:50;;;;;;;1227.23;183.80;;;8.40;99.90;;;;;;5030129;28;20202;-52
2023/01/13 10:43:18;;;;;;;326.30;80.80;;;8.40;99.90;;;;;;5018277;28;20675;-50
2023/01/13 10:45:59;;;;;;;1851.40;357.00;;;8.20;99.90;;;;;;5030782;28;20285;-51
2023/01/13 10:48:36;;;;;;;464.40;125.37;;;8.30;99.90;;;;;;5030516;28;20273;-52
2023/01/13 10:51:20;;;;;;;1332.33;259.57;;;8.30;99.90;;;;;;5021816;28;20308;-52
2023/01/13 10:53:53;;;;;;;1999.90;578.53;;;8.40;99.90;;;;;;5029720;28;20249;-52
2023/01/13 10:56:22;;;;;;;1578.50;314.00;;;8.30;99.90;;;;;;5030358;28;20676;-50
2023/01/13 10:58:50;;;;;;;1999.90;593.63;;;8.30;99.90;;;;;;5020056;28;20262;-52
2023/01/13 11:01:26;;;;;;;1611.17;258.93;;;8.30;99.90;;;;;;5030325;28;20256;-52
2023/01/13 11:03:55;;;;;;;1999.90;999.90;;;8.50;99.90;;;;;;5029906;28;20244;-52
2023/01/13 11:06:27;;;;;;;1410.90;296.50;;;8.50;99.90;;;;;;5029863;28;20234;-52
2023/01/13 11:08:57;;;;;;;1999.90;472.23;;;8.50;99.90;;;;;;5030296;28;20242;-52
2023/01/13 11:11:37;;;;;;;1999.90;612.53;;;8.50;99.90;;;;;;5030205;28;20291;-52
2023/01/13 11:14:35;;;;;;;1689.87;316.83;;;8.50;99.90;;;;;;5029874;28;20210;-52
2023/01/13 11:17:11;;;;;;;1115.37;356.87;;;8.50;99.90;;;;;;5029971;28;20218;-51
2023/01/13 11:19:44;;;;;;;1505.17;303.63;;;8.40;99.90;;;;;;5023336;28;20279;-50
2023/01/13 11:22:21;;;;;;;1980.10;547.80;;;8.40;99.90;;;;;;5029765;28;20315;-51
2023/01/13 11:24:54;;;;;;;820.60;125.57;;;8.40;99.90;;;;;;5016335;28;20241;-51
2023/01/13 11:27:30;;;;;;;1077.77;239.27;;;8.50;99.90;;;;;;5029865;28;20785;-52
2023/01/13 11:30:09;;;;;;;927.63;250.47;;;8.40;99.90;;;;;;5016424;28;20256;-51
2023/01/13 11:32:44;;;;;;;270.63;71.43;;;8.40;99.90;;;;;;5026868;28;20776;-50
2023/01/13 11:35:17;;;;;;;822.17;257.97;;;8.50;99.90;;;;;;5029883;28;20260;-52
2023/01/13 11:37:52;;;;;;;1674.50;362.00;;;8.40;99.90;;;;;;5029011;28;20285;-51
2023/01/13 11:40:27;;;;;;;1999.90;607.40;;;8.50;99.90;;;;;;5029814;28;20900;-52
2023/01/13 11:43:03;;;;;;;1999.90;699.00;;;8.50;99.90;;;;;;5028901;28;20233;-52
2023/01/13 11:45:40;;;;;;;1999.90;581.70;;;8.70;99.90;;;;;;5029586;28;20252;-52
2023/01/13 11:48:14;;;;;;;1964.90;356.53;;;8.70;99.90;;;;;;5028594;28;20266;-53
2023/01/13 11:50:49;;;;;;;1999.90;490.07;;;8.70;99.90;;;;;;5029384;28;20296;-51
2023/01/13 11:53:40;;;;;;;1999.90;509.53;;;8.80;99.90;;;;;;5028423;28;20217;-52
2023/01/13 11:56:25;;;;;;;1278.03;292.67;;;8.70;99.90;;;;;;5026395;28;20240;-51
2023/01/13 11:59:14;;;;;;;1999.90;579.87;;;8.70;99.90;;;;;;5028567;28;20261;-52
2023/01/13 12:02:05;;;;;;;1402.47;388.53;;;8.80;99.90;;;;;;5027813;28;20233;-52
2023/01/13 12:04:44;;;;;;;707.93;188.33;;;8.90;99.90;;;;;;5027200;28;20593;-52
2023/01/13 12:07:19;;;;;;;1999.90;568.57;;;8.80;99.90;;;;;;5028784;28;20268;-51
2023/01/13 12:10:04;;;;;;;1999.90;545.63;;;8.80;99.90;;;;;;5028726;28;20216;-52
2023/01/13 12:12:47;;;;;;;1999.90;550.97;;;9.00;99.90;;;;;;5038397;28;20994;-52
2023/01/13 12:15:36;;;;;;;1999.90;676.17;;;9.00;99.90;;;;;;5023085;28;20776;-52
2023/01/13 12:18:34;;;;;;;1999.90;995.97;;;9.00;99.90;;;;;;5026386;28;20268;-52
2023/01/13 12:21:16;;;;;;;1999.90;794.27;;;9.10;99.90;;;;;;5028472;28;20207;-51
2023/01/13 12:23:51;;;;;;;1999.90;694.13;;;8.90;99.90;;;;;;5017321;28;20285;-50
2023/01/13 12:26:21;;;;;;;1999.90;777.50;;;8.90;99.90;;;;;;5023927;28;20238;-51
2023/01/13 12:28:53;;;;;;;1479.87;394.20;;;9.00;99.90;;;;;;5029306;28;20269;-50
2023/01/13 12:31:23;;;;;;;1999.90;560.23;;;9.00;99.90;;;;;;5028544;28;20301;-51
2023/01/13 12:34:08;;;;;;;1999.60;554.93;;;9.00;99.90;;;;;;5023568;28;20214;-52
2023/01/13 12:36:52;;;;;;;444.17;146.20;;;9.00;99.90;;;;;;5016678;28;20248;-51
2023/01/13 12:39:28;;;;;;;1425.13;330.30;;;9.00;99.90;;;;;;5015379;28;20266;-50
2023/01/13 12:45:20;;;;;;;1888.00;382.37;;;9.00;99.90;;;;;;5028469;28;20241;-51
2023/01/13 12:47:48;;;;;;;1999.90;509.03;;;9.10;99.90;;;;;;5024113;28;20261;-51
2023/01/13 12:50:42;;;;;;;1409.60;330.67;;;9.10;99.90;;;;;;5026726;28;20742;-51
2023/01/13 12:53:37;;;;;;;1999.90;999.90;;;9.10;99.90;;;;;;5022483;28;20574;-50
2023/01/13 12:56:29;;;;;;;1999.90;560.30;;;9.20;99.90;;;;;;5029198;28;20203;-51
2023/01/13 12:59:35;;;;;;;1241.33;227.43;;;9.20;99.90;;;;;;5028624;28;20226;-51
2023/01/13 13:02:33;;;;;;;1999.90;907.70;;;9.10;99.90;;;;;;5025940;28;20287;-51
2023/01/13 13:05:52;;;;;;;1999.90;994.27;;;9.00;99.90;;;;;;5028150;28;20203;-52
2023/01/13 13:08:24;;;;;;;1999.90;718.90;;;8.90;99.90;;;;;;5021534;28;20764;-51
2023/01/13 13:11:01;;;;;;;1999.90;851.07;;;9.00;99.90;;;;;;5028437;28;20238;-51
2023/01/13 13:13:44;;;;;;;1999.90;571.37;;;8.90;99.90;;;;;;5022109;28;20861;-52
2023/01/13 13:16:48;;;;;;;1999.90;490.27;;;9.10;99.90;;;;;;5023362;28;20690;-52
2023/01/13 13:19:44;;;;;;;1481.53;334.67;;;9.00;99.90;;;;;;5004899;28;20236;-52
2023/01/13 13:22:37;;;;;;;1999.90;516.93;;;8.90;99.90;;;;;;5028390;28;20557;-51
2023/01/13 13:25:29;;;;;;;1999.90;545.33;;;8.90;99.90;;;;;;5028704;28;20210;-52
2023/01/13 13:28:19;;;;;;;1999.90;993.67;;;8.90;99.90;;;;;;5018332;28;20231;-51